createdAt,value
2022-10-10T00:00:09.857Z,5.70
2022-10-10T00:05:08.320Z,5.03
2022-10-10T00:10:06.555Z,4.75
2022-10-10T00:15:05.446Z,4.10
2022-10-10T00:20:04.064Z,4.97
2022-10-10T00:25:06.495Z,5.18
2022-10-10T00:30:07.426Z,5.47
2022-10-10T00:35:06.509Z,4.47
2022-10-10T00:40:06.467Z,5.22
2022-10-10T00:45:24.751Z,5.47
2022-10-10T00:50:24.469Z,4.97
2022-10-10T00:55:23.444Z,4.97
2022-10-10T01:00:22.173Z,6.22
2022-10-10T01:05:21.070Z,5.85
2022-10-10T01:10:22.990Z,6.28
2022-10-10T01:15:35.498Z,5.68
2022-10-10T01:21:01.608Z,4.93
2022-10-10T01:26:14.734Z,5.28
2022-10-10T01:31:14.735Z,5.25
2022-10-10T01:36:18.643Z,5.20
2022-10-10T01:46:28.197Z,5.32
2022-10-10T01:51:38.048Z,5.10
2022-10-10T01:56:49.899Z,4.93
2022-10-10T02:01:54.010Z,4.85
2022-10-10T02:06:56.015Z,4.82
2022-10-10T02:11:54.770Z,4.95
2022-10-10T02:16:54.951Z,4.72
2022-10-10T02:21:55.261Z,4.85
2022-10-10T02:27:09.662Z,5.50
2022-10-10T02:32:37.021Z,5.10
2022-10-10T02:37:39.214Z,5.25
2022-10-10T02:42:40.021Z,5.30
2022-10-10T02:47:41.320Z,4.72
2022-10-10T02:52:45.394Z,5.85
2022-10-10T02:57:45.029Z,5.10
2022-10-10T03:02:47.351Z,5.60
2022-10-10T03:07:45.727Z,5.03
2022-10-10T03:12:43.206Z,5.57
2022-10-10T03:17:43.142Z,6.30
2022-10-10T03:22:40.550Z,5.28
2022-10-10T03:27:38.559Z,4.90
2022-10-10T03:32:37.763Z,4.35
2022-10-10T03:37:36.333Z,4.07
2022-10-10T03:42:36.281Z,4.07
2022-10-10T03:47:44.362Z,4.00
2022-10-10T03:52:43.125Z,4.45
2022-10-10T03:57:42.151Z,4.20
2022-10-10T04:02:44.869Z,4.05
2022-10-10T04:07:48.147Z,3.45
2022-10-10T04:12:46.615Z,3.42
2022-10-10T04:17:48.248Z,3.65
2022-10-10T04:22:48.715Z,3.17
2022-10-10T04:27:50.657Z,3.53
2022-10-10T04:32:49.471Z,4.30
2022-10-10T04:37:53.572Z,3.33
2022-10-10T04:42:54.746Z,3.58
2022-10-10T04:47:54.098Z,3.28
2022-10-10T04:52:55.632Z,3.03
2022-10-10T04:57:54.546Z,3.72
2022-10-10T05:02:55.162Z,4.55
2022-10-10T05:08:01.886Z,10.43
2022-10-10T05:13:01.687Z,3.53
2022-10-10T05:18:02.598Z,5.05
2022-10-10T05:23:01.011Z,3.20
2022-10-10T05:28:05.399Z,2.60
2022-10-10T05:33:03.945Z,2.40
2022-10-10T05:38:06.039Z,2.80
2022-10-10T05:43:04.270Z,2.53
2022-10-10T05:48:04.402Z,2.58
2022-10-10T05:53:02.807Z,3.00
2022-10-10T05:58:06.880Z,3.95
2022-10-10T06:03:07.649Z,2.30
2022-10-10T06:08:12.062Z,2.50
2022-10-10T06:13:11.263Z,2.08
2022-10-10T06:18:13.111Z,3.47
2022-10-10T06:23:12.839Z,2.38
2022-10-10T06:28:12.329Z,2.75
2022-10-10T06:33:15.308Z,2.00
2022-10-10T06:38:17.159Z,2.10
2022-10-10T06:43:16.576Z,2.08
2022-10-10T06:48:16.247Z,1.85
2022-10-10T06:53:14.752Z,2.10
2022-10-10T06:58:16.699Z,1.40
2022-10-10T07:03:14.948Z,2.30
2022-10-10T07:08:13.549Z,1.35
2022-10-10T07:13:11.208Z,2.80
2022-10-10T07:18:10.366Z,3.72
2022-10-10T07:23:11.823Z,1.80
2022-10-10T07:28:13.903Z,2.05
2022-10-10T07:33:16.417Z,1.77
2022-10-10T07:38:17.446Z,1.02
2022-10-10T07:43:16.368Z,1.33
2022-10-10T07:48:17.830Z,1.00
2022-10-10T07:53:18.111Z,2.00
2022-10-10T07:58:19.380Z,1.40
2022-10-10T08:03:20.730Z,1.55
2022-10-10T08:08:23.188Z,1.17
2022-10-10T08:13:23.550Z,1.83
2022-10-10T08:18:21.884Z,1.10
2022-10-10T08:23:23.850Z,1.13
2022-10-10T08:28:24.926Z,2.47
2022-10-10T08:33:25.929Z,2.70
2022-10-10T08:38:24.564Z,2.65
2022-10-10T08:43:29.591Z,1.40
2022-10-10T08:48:30.267Z,1.60
2022-10-10T08:53:35.714Z,1.40
2022-10-10T08:58:55.619Z,3.45
2022-10-10T09:03:56.254Z,1.55
2022-10-10T09:09:13.488Z,1.40
2022-10-10T09:14:26.438Z,1.40
2022-10-10T09:19:35.011Z,1.40
2022-10-10T09:24:57.333Z,1.42
2022-10-10T09:30:09.467Z,1.00
2022-10-10T09:35:15.254Z,1.88
2022-10-10T09:40:19.109Z,1.20
2022-10-10T09:45:21.860Z,3.72
2022-10-10T09:50:21.266Z,1.95
2022-10-10T09:55:24.739Z,1.13
2022-10-10T10:00:30.042Z,1.55
2022-10-10T10:05:28.629Z,1.27
2022-10-10T10:10:27.886Z,1.20
2022-10-10T10:15:29.934Z,1.20
2022-10-10T10:20:31.750Z,1.15
2022-10-10T10:25:39.564Z,5.15
2022-10-10T10:30:39.805Z,1.80
2022-10-10T10:35:51.808Z,1.30
2022-10-10T10:41:11.519Z,1.52
2022-10-10T10:46:12.186Z,1.52
2022-10-10T10:51:32.467Z,1.67
2022-10-10T10:56:36.333Z,1.58
2022-10-10T11:02:11.119Z,1.48
2022-10-10T11:07:20.710Z,1.88
2022-10-10T11:12:54.598Z,2.45
2022-10-10T11:17:56.287Z,1.85
2022-10-10T11:23:09.964Z,1.10
2022-10-10T11:28:49.573Z,2.05
2022-10-10T11:34:01.564Z,3.65
2022-10-10T11:39:16.060Z,1.83
2022-10-10T11:44:22.979Z,1.60
2022-10-10T11:49:32.395Z,1.70
2022-10-10T11:54:44.941Z,1.75
2022-10-10T11:59:47.827Z,1.52
2022-10-10T12:04:45.419Z,2.30
2022-10-10T12:09:46.902Z,1.83
2022-10-10T12:14:56.766Z,1.80
2022-10-10T12:20:10.409Z,2.70
2022-10-10T12:25:23.547Z,2.17
2022-10-10T12:30:25.252Z,2.53
2022-10-10T12:35:44.581Z,2.00
2022-10-10T12:41:03.324Z,2.33
2022-10-10T12:46:45.634Z,1.77
2022-10-10T12:52:02.558Z,1.88
2022-10-10T12:57:34.615Z,2.20
2022-10-10T13:02:36.346Z,2.35
2022-10-10T13:07:37.216Z,2.00
2022-10-10T13:12:35.946Z,1.95
2022-10-10T13:17:40.938Z,1.70
2022-10-10T13:22:45.218Z,2.72
2022-10-10T13:27:46.196Z,2.00
2022-10-10T13:32:47.535Z,2.05
2022-10-10T13:37:47.960Z,2.50
2022-10-10T13:42:49.814Z,3.03
2022-10-10T13:47:54.763Z,2.25
2022-10-10T13:53:30.685Z,2.00
2022-10-10T13:58:39.710Z,1.77
2022-10-10T14:03:39.376Z,2.13
2022-10-10T14:08:40.380Z,1.85
2022-10-10T14:13:48.052Z,2.10
2022-10-10T14:18:56.246Z,2.45
2022-10-10T14:23:55.103Z,2.20
2022-10-10T14:28:56.800Z,1.75
2022-10-10T14:33:56.118Z,1.73
2022-10-10T14:38:55.729Z,1.83
2022-10-10T14:43:54.217Z,1.75
2022-10-10T14:48:52.875Z,2.20
2022-10-10T14:54:13.517Z,1.92
2022-10-10T14:59:45.729Z,2.20
2022-10-10T15:04:40.027Z,2.25
2022-10-10T15:09:42.864Z,2.30
2022-10-10T15:14:48.441Z,2.55
2022-10-10T15:19:58.456Z,2.30
2022-10-10T15:25:04.625Z,2.17
2022-10-10T15:30:04.954Z,2.25
2022-10-10T15:35:07.300Z,2.38
2022-10-10T15:40:06.386Z,2.58
2022-10-10T15:45:08.203Z,2.40
2022-10-10T15:50:07.106Z,3.03
2022-10-10T15:55:11.461Z,3.45
2022-10-10T16:00:11.099Z,4.97
2022-10-10T16:05:15.781Z,4.97
2022-10-10T16:10:19.987Z,5.10
2022-10-10T16:15:18.113Z,4.97
2022-10-10T16:20:17.145Z,4.80
2022-10-10T16:25:23.502Z,4.53
2022-10-10T16:30:21.645Z,4.65
2022-10-10T16:35:20.226Z,4.13
2022-10-10T16:40:18.368Z,4.57
2022-10-10T16:45:16.957Z,4.30
2022-10-10T16:50:19.016Z,4.22
2022-10-10T16:55:17.387Z,4.05
2022-10-10T17:00:15.730Z,3.83
2022-10-10T17:05:13.890Z,3.03
2022-10-10T17:10:14.039Z,2.70
2022-10-10T17:15:14.311Z,3.35
2022-10-10T17:20:28.205Z,2.88
2022-10-10T17:25:35.270Z,7.53
2022-10-10T17:30:42.488Z,3.38
2022-10-10T17:35:44.962Z,3.00
2022-10-10T17:40:59.184Z,3.80
2022-10-10T17:46:33.039Z,3.10
2022-10-10T17:51:35.904Z,2.65
2022-10-10T17:56:37.759Z,3.28
2022-10-10T18:01:37.330Z,2.80
2022-10-10T18:06:37.620Z,3.03
2022-10-10T18:11:36.610Z,2.47
2022-10-10T18:16:36.132Z,2.67
2022-10-10T18:21:35.329Z,3.08
2022-10-10T18:26:37.186Z,2.92
2022-10-10T18:31:36.876Z,2.72
2022-10-10T18:36:36.436Z,2.75
2022-10-10T18:41:34.900Z,2.55
2022-10-10T18:46:34.849Z,2.60
2022-10-10T18:51:34.287Z,2.92
2022-10-10T18:56:33.115Z,3.53
2022-10-10T19:01:35.346Z,2.88
2022-10-10T19:06:36.183Z,3.28
2022-10-10T19:11:36.649Z,2.67
2022-10-10T19:16:35.891Z,2.80
2022-10-10T19:21:35.771Z,2.97
2022-10-10T19:26:34.940Z,2.95
2022-10-10T19:31:33.300Z,2.60
2022-10-10T19:36:34.362Z,3.15
2022-10-10T19:41:37.477Z,2.15
2022-10-10T19:46:37.945Z,2.70
2022-10-10T19:51:35.964Z,3.15
2022-10-10T19:56:35.173Z,2.70
2022-10-10T20:01:34.128Z,2.90
2022-10-10T20:06:37.668Z,3.38
2022-10-10T20:11:37.329Z,2.95
2022-10-10T20:16:35.486Z,2.67
2022-10-10T20:21:34.200Z,2.50
2022-10-10T20:26:33.286Z,2.33
2022-10-10T20:31:35.104Z,2.58
2022-10-10T20:36:33.721Z,2.10
2022-10-10T20:41:36.210Z,2.15
2022-10-10T20:46:39.256Z,2.70
2022-10-10T20:51:39.679Z,2.80
2022-10-10T20:56:38.660Z,2.58
2022-10-10T21:01:37.849Z,2.65
2022-10-10T21:06:38.211Z,2.67
2022-10-10T21:11:39.197Z,2.40
2022-10-10T21:16:39.154Z,3.08
2022-10-10T21:21:37.216Z,5.22
2022-10-10T21:26:35.929Z,5.15
2022-10-10T21:31:36.883Z,4.60
2022-10-10T21:36:36.084Z,4.22
2022-10-10T21:41:36.193Z,3.10
2022-10-10T21:46:36.960Z,2.60
2022-10-10T21:51:42.167Z,2.97
2022-10-10T21:56:40.985Z,2.80
2022-10-10T22:01:39.746Z,2.83
2022-10-10T22:06:38.953Z,3.00
2022-10-10T22:11:37.549Z,2.42
2022-10-10T22:16:36.277Z,3.08
2022-10-10T22:21:35.557Z,3.42
2022-10-10T22:26:35.302Z,3.03
2022-10-10T22:31:38.284Z,3.15
2022-10-10T22:36:40.084Z,3.47
2022-10-10T22:41:37.686Z,3.65
2022-10-10T22:46:36.873Z,3.72
2022-10-10T22:51:36.746Z,3.28
2022-10-10T22:56:35.660Z,3.45
2022-10-10T23:01:34.555Z,3.67
2022-10-10T23:06:33.677Z,3.88
2022-10-10T23:11:34.851Z,4.47
2022-10-10T23:16:35.709Z,4.95
2022-10-10T23:21:36.622Z,5.15
2022-10-10T23:26:38.701Z,3.90
2022-10-10T23:31:36.687Z,3.50
2022-10-10T23:36:38.498Z,3.58
2022-10-10T23:41:40.112Z,3.53
2022-10-10T23:46:41.703Z,3.45
2022-10-10T23:51:40.702Z,3.90
2022-10-10T23:56:42.169Z,3.17
